Time;durP1;ratioP1;P1;durP2;ratioP2;P2;SDS_P1;SDS_P2;PMS_P1;PMS_P2;Temp;Humidity;BMP_temperature;BMP_pressure;BME280_temperature;BME280_humidity;BME280_pressure;Samples;Min_cycle;Max_cycle;Signal;HPM_P1;HPM_P2
2023/04/11 00:01:48;;;;;;;7.50;2.20;;;;;;;19.09;43.56;100835.16;4989205;28;20042;-67
2023/04/11 00:04:15;;;;;;;8.13;2.58;;;;;;;19.08;43.36;100833.50;4988384;28;20039;-68
2023/04/11 00:06:41;;;;;;;7.28;1.80;;;;;;;19.08;43.25;100834.31;4996063;28;20038;-66
2023/04/11 00:09:06;;;;;;;7.10;1.90;;;;;;;19.07;43.46;100832.66;4985787;28;20049;-66
2023/04/11 00:11:31;;;;;;;6.60;2.20;;;;;;;19.06;43.18;100831.00;4993958;28;20498;-66
2023/04/11 00:13:57;;;;;;;6.32;1.60;;;;;;;19.04;43.36;100827.63;4984613;28;20497;-68
2023/04/11 00:16:24;;;;;;;7.80;1.92;;;;;;;19.07;43.38;100842.38;4995297;28;20100;-66
2023/04/11 00:18:50;;;;;;;6.28;1.80;;;;;;;19.01;43.31;100833.19;4995358;28;20037;-67
2023/04/11 00:21:15;;;;;;;7.50;2.20;;;;;;;19.03;43.18;100844.47;5003453;28;20029;-68
2023/04/11 00:23:40;;;;;;;7.22;2.40;;;;;;;19.05;43.25;100845.16;4999084;28;20042;-68
2023/04/11 00:26:06;;;;;;;5.33;2.13;;;;;;;19.02;43.21;100842.78;5003304;28;20033;-66
2023/04/11 00:28:31;;;;;;;6.85;1.90;;;;;;;18.99;43.11;100837.75;4988094;28;20275;-67
2023/04/11 00:30:57;;;;;;;7.78;1.95;;;;;;;19.02;43.21;100842.78;4989296;28;20034;-67
2023/04/11 00:33:22;;;;;;;6.22;1.98;;;;;;;18.99;43.07;100837.75;5002416;28;20038;-68
2023/04/11 00:35:47;;;;;;;7.57;2.25;;;;;;;19.01;42.87;100841.13;4996883;28;20109;-69
2023/04/11 00:38:12;;;;;;;8.35;1.85;;;;;;;18.99;42.93;100849.16;4983543;28;20867;-67
2023/04/11 00:40:38;;;;;;;8.70;2.37;;;;;;;18.98;43.00;100836.09;4997100;28;20390;-67
2023/04/11 00:43:03;;;;;;;11.27;3.33;;;;;;;18.98;43.05;100850.13;5000933;28;20279;-67
2023/04/11 00:45:28;;;;;;;9.75;2.42;;;;;;;18.97;42.85;100851.09;4983863;28;20030;-66
2023/04/11 00:47:54;;;;;;;8.90;2.50;;;;;;;18.97;42.71;100851.09;4995224;28;20030;-67
2023/04/11 00:50:21;;;;;;;9.07;2.20;;;;;;;18.96;42.99;100848.56;4998227;28;20073;-68
2023/04/11 00:52:48;;;;;;;7.65;2.53;;;;;;;18.96;42.90;100854.72;4995308;28;20044;-68
2023/04/11 00:55:14;;;;;;;10.73;2.70;;;;;;;18.93;43.10;100852.31;4990887;28;20067;-67
2023/04/11 00:57:40;;;;;;;8.38;2.38;;;;;;;18.95;42.84;100852.19;4991105;28;20045;-66
2023/04/11 01:00:09;;;;;;;7.20;2.15;;;;;;;18.92;42.98;100842.72;4987631;28;20073;-66
2023/04/11 01:02:34;;;;;;;8.05;2.75;;;;;;;18.91;42.87;100848.97;4982944;28;20390;-67
2023/04/11 01:05:00;;;;;;;8.65;2.20;;;;;;;18.91;42.89;100842.84;4987537;28;20045;-67
2023/04/11 01:07:26;;;;;;;7.85;2.53;;;;;;;18.90;42.93;100843.81;4995253;28;20029;-67
2023/04/11 01:09:52;;;;;;;7.65;2.15;;;;;;;18.90;42.75;100843.81;5000417;28;20042;-66
2023/04/11 01:12:20;;;;;;;6.80;2.13;;;;;;;18.89;42.80;100842.97;4998927;28;20065;-66
2023/04/11 01:14:46;;;;;;;9.68;2.35;;;;;;;18.87;42.75;100844.91;4998436;28;20080;-66
2023/04/11 01:17:13;;;;;;;8.35;2.50;;;;;;;18.90;42.71;100849.09;4995834;28;20034;-66
2023/04/11 01:19:39;;;;;;;7.75;2.38;;;;;;;18.88;42.69;100843.09;4987062;28;20044;-66
2023/04/11 01:22:05;;;;;;;8.65;2.28;;;;;;;18.89;42.60;100844.78;4999518;28;20128;-67
2023/04/11 01:24:30;;;;;;;7.90;2.55;;;;;;;18.89;42.88;100842.16;5001250;28;20844;-66
2023/04/11 01:26:56;;;;;;;9.35;2.78;;;;;;;18.88;42.54;100841.28;4982845;28;20092;-67
2023/04/11 01:29:21;;;;;;;8.23;2.42;;;;;;;18.85;42.61;100839.75;4990883;28;20491;-68
2023/04/11 01:31:46;;;;;;;8.07;2.50;;;;;;;18.87;42.55;100837.00;4982656;28;20026;-67
2023/04/11 01:34:13;;;;;;;8.93;2.13;;;;;;;18.86;42.59;100851.16;4994096;28;20038;-68
2023/04/11 01:36:41;;;;;;;7.38;2.08;;;;;;;18.82;42.62;100853.19;4986344;28;20092;-66
2023/04/11 01:39:06;;;;;;;8.50;2.70;;;;;;;18.81;42.57;100851.50;4983971;28;20221;-67
2023/04/11 01:41:33;;;;;;;9.07;2.63;;;;;;;18.81;42.38;100851.50;4994742;28;20398;-66
2023/04/11 01:43:59;;;;;;;7.57;2.35;;;;;;;18.81;42.57;100861.25;4986496;28;20030;-66
2023/04/11 01:46:25;;;;;;;10.88;2.55;;;;;;;18.79;42.67;100864.00;4990069;28;20388;-67
2023/04/11 01:48:53;;;;;;;9.07;2.58;;;;;;;18.80;42.63;100876.25;4986387;28;20498;-67
2023/04/11 01:51:18;;;;;;;8.60;2.45;;;;;;;18.78;42.39;100870.25;4992449;28;20034;-66
2023/04/11 01:53:46;;;;;;;7.22;2.40;;;;;;;18.78;42.47;100867.59;4989135;28;20034;-67
2023/04/11 01:56:12;;;;;;;8.35;2.40;;;;;;;18.79;42.51;100884.31;4996882;28;20124;-66
2023/04/11 01:58:37;;;;;;;8.50;2.63;;;;;;;18.77;42.20;100879.16;4982206;28;20034;-66
2023/04/11 02:01:02;;;;;;;9.25;2.25;;;;;;;18.77;42.26;100879.16;4988077;28;20034;-67
2023/04/11 02:03:28;;;;;;;10.45;2.90;;;;;;;18.76;42.26;100879.28;4992012;28;20439;-67
2023/04/11 02:05:53;;;;;;;9.57;1.90;;;;;;;18.75;42.34;100880.22;4982249;28;20022;-68
2023/04/11 02:08:18;;;;;;;9.80;2.85;;;;;;;18.76;42.33;100879.28;4991910;28;20267;-68
2023/04/11 02:10:44;;;;;;;10.03;2.33;;;;;;;18.76;42.40;100889.84;5001921;28;20037;-69
2023/04/11 02:13:09;;;;;;;8.23;2.50;;;;;;;18.70;42.42;100885.88;4987686;28;20381;-68
2023/04/11 02:15:34;;;;;;;8.30;2.72;;;;;;;18.73;42.37;100893.56;5001442;28;20026;-67
2023/04/11 02:18:00;;;;;;;9.77;2.60;;;;;;;18.75;42.29;100890.78;4998327;28;20030;-68
2023/04/11 02:20:25;;;;;;;10.10;2.72;;;;;;;18.72;42.44;100889.22;4992861;28;20272;-68
2023/04/11 02:22:51;;;;;;;8.73;2.42;;;;;;;18.74;42.09;100900.53;4982150;28;20104;-69
2023/04/11 02:25:16;;;;;;;8.20;2.70;;;;;;;18.74;42.30;100897.03;4981944;28;20056;-66
2023/04/11 02:27:41;;;;;;;8.95;2.42;;;;;;;18.72;42.21;100897.16;4985180;28;20065;-66
2023/04/11 02:30:07;;;;;;;8.38;2.70;;;;;;;18.71;42.31;100900.78;4984470;28;20184;-66
2023/04/11 02:32:33;;;;;;;10.32;3.13;;;;;;;18.70;42.17;100904.38;4989894;28;20029;-68
2023/04/11 02:34:59;;;;;;;9.68;2.90;;;;;;;18.70;42.41;100899.09;5001226;28;20041;-67
2023/04/11 02:37:25;;;;;;;8.45;2.40;;;;;;;18.69;42.37;100902.69;4993040;28;20042;-68
2023/04/11 02:39:50;;;;;;;9.48;2.65;;;;;;;18.67;42.25;100897.56;4982450;28;20502;-67
2023/04/11 02:42:15;;;;;;;12.00;2.80;;;;;;;18.68;42.35;100904.50;4989242;28;20053;-66
2023/04/11 02:44:41;;;;;;;8.90;2.50;;;;;;;18.67;42.26;100900.19;5000677;28;20041;-67
2023/04/11 02:47:06;;;;;;;9.27;2.45;;;;;;;18.66;42.11;100902.97;4985978;28;20387;-66
2023/04/11 02:49:31;;;;;;;10.10;2.33;;;;;;;18.66;42.21;100902.97;4996059;28;20034;-67
2023/04/11 02:51:56;;;;;;;10.10;2.75;;;;;;;18.66;42.38;100906.44;4999582;28;20255;-67
2023/04/11 02:54:22;;;;;;;9.65;2.72;;;;;;;18.67;42.09;100913.41;4986755;28;20093;-66
2023/04/11 02:56:47;;;;;;;9.45;2.47;;;;;;;18.63;42.12;100905.84;4989493;28;20463;-67
2023/04/11 02:59:12;;;;;;;10.73;2.92;;;;;;;18.64;42.10;100916.28;4993340;28;20030;-67
2023/04/11 03:01:38;;;;;;;8.80;2.42;;;;;;;18.60;41.99;100912.22;4995419;28;20037;-68
2023/04/11 03:04:03;;;;;;;9.88;2.53;;;;;;;18.63;41.85;100916.41;4995494;28;20910;-66
2023/04/11 03:06:28;;;;;;;9.18;2.63;;;;;;;18.62;42.04;100906.81;5002982;28;20041;-66
2023/04/11 03:08:54;;;;;;;8.38;2.42;;;;;;;18.62;42.13;100906.81;4997734;28;20037;-66
2023/04/11 03:11:20;;;;;;;8.93;2.65;;;;;;;18.61;41.98;100913.03;4989859;28;20033;-67
2023/04/11 03:13:46;;;;;;;8.90;2.58;;;;;;;18.64;41.97;100918.06;4989776;28;20038;-66
2023/04/11 03:16:12;;;;;;;7.50;2.03;;;;;;;18.61;42.00;100916.53;4986677;28;20045;-67
2023/04/11 03:18:38;;;;;;;9.70;2.65;;;;;;;18.64;41.93;100926.00;5001599;28;20042;-67
2023/04/11 03:21:03;;;;;;;9.73;2.60;;;;;;;18.62;42.11;100920.84;4989393;28;20030;-65
2023/04/11 03:23:30;;;;;;;10.18;2.50;;;;;;;18.61;42.08;100926.25;4985182;28;20049;-66
2023/04/11 03:25:57;;;;;;;8.98;2.60;;;;;;;18.63;42.03;100934.91;4967878;28;20035;-68
2023/04/11 03:28:23;;;;;;;8.48;2.20;;;;;;;18.62;41.99;100943.75;4993421;28;20128;-67
2023/04/11 03:30:49;;;;;;;8.90;2.47;;;;;;;18.59;41.73;100931.66;5004329;28;20203;-66
2023/04/11 03:33:15;;;;;;;8.55;2.30;;;;;;;18.61;41.93;100942.06;5001668;28;20131;-68
2023/04/11 03:35:40;;;;;;;9.57;2.50;;;;;;;18.60;41.80;100949.16;4968370;28;20474;-67
2023/04/11 03:38:05;;;;;;;7.53;2.10;;;;;;;18.57;41.84;100938.03;5004237;28;20046;-68
2023/04/11 03:40:31;;;;;;;7.78;2.22;;;;;;;18.57;41.76;100945.94;4987346;28;20501;-68
2023/04/11 03:42:58;;;;;;;10.90;2.58;;;;;;;18.59;41.66;100955.41;4992823;28;20069;-69
2023/04/11 03:45:23;;;;;;;7.10;1.90;;;;;;;18.56;41.77;100952.19;4996880;28;20035;-67
2023/04/11 03:47:48;;;;;;;8.38;1.70;;;;;;;18.58;41.61;100950.25;4994841;28;20038;-67
2023/04/11 03:50:14;;;;;;;7.05;2.50;;;;;;;18.57;41.70;100951.22;4984847;28;20471;-69
2023/04/11 03:52:39;;;;;;;9.00;2.42;;;;;;;18.58;41.60;100952.88;4997655;28;20057;-68
2023/04/11 03:55:05;;;;;;;8.87;2.33;;;;;;;18.55;41.55;100943.44;4982726;28;20092;-68
2023/04/11 03:57:31;;;;;;;9.10;2.15;;;;;;;18.56;41.47;100954.81;4994790;28;20483;-68
2023/04/11 03:59:57;;;;;;;7.43;2.05;;;;;;;18.55;41.42;100959.28;4992315;28;20138;-68
2023/04/11 04:02:22;;;;;;;7.82;2.38;;;;;;;18.55;41.28;100961.91;5000529;28;20082;-69
2023/04/11 04:04:54;;;;;;;8.87;2.40;;;;;;;18.56;41.56;100960.94;4994669;28;20045;-67
2023/04/11 04:07:23;;;;;;;6.00;2.10;;;;;;;18.52;41.39;100956.88;4996661;28;21145;-68
2023/04/11 04:09:49;;;;;;;8.30;1.83;;;;;;;18.55;41.14;100953.13;4984533;28;20034;-67
2023/04/11 04:12:16;;;;;;;5.70;1.70;;;;;;;18.55;41.25;100956.63;4990165;28;20045;-67
2023/04/11 04:14:42;;;;;;;8.07;1.88;;;;;;;18.53;41.16;100958.53;4992635;28;20046;-67
2023/04/11 04:17:07;;;;;;;6.32;2.15;;;;;;;18.52;41.02;100953.38;4972894;28;20045;-68
2023/04/11 04:19:32;;;;;;;6.95;1.75;;;;;;;18.54;41.04;100965.50;4992090;28;20081;-66
2023/04/11 04:21:58;;;;;;;7.97;2.13;;;;;;;18.53;41.23;100968.25;4992953;28;20046;-66
2023/04/11 04:24:26;;;;;;;9.48;2.20;;;;;;;18.49;41.26;100965.88;5001244;28;20263;-68
2023/04/11 04:26:52;;;;;;;6.80;2.00;;;;;;;18.51;41.24;100964.91;5003467;28;20069;-66
2023/04/11 04:29:17;;;;;;;7.30;2.38;;;;;;;18.51;41.13;100976.31;4990495;28;20584;-67
2023/04/11 04:31:43;;;;;;;6.30;1.95;;;;;;;18.50;40.94;100974.66;4998269;28;20034;-68
2023/04/11 04:34:09;;;;;;;9.23;2.63;;;;;;;18.49;40.98;100984.34;4991704;28;20041;-67
2023/04/11 04:36:48;;;;;;;7.70;2.55;;;;;;;18.47;40.81;100988.91;4978802;28;20038;-68
2023/04/11 04:39:17;;;;;;;6.55;1.85;;;;;;;18.47;40.83;100996.00;4994803;28;20113;-67
2023/04/11 04:41:56;;;;;;;7.55;2.40;;;;;;;18.48;40.85;101002.94;4994339;28;20577;-66
2023/04/11 04:44:25;;;;;;;7.72;2.10;;;;;;;18.47;40.88;100990.72;4993230;28;20129;-68
2023/04/11 04:46:54;;;;;;;7.93;2.15;;;;;;;18.46;41.19;100994.31;4991851;28;20541;-67
2023/04/11 04:49:20;;;;;;;7.97;3.10;;;;;;;18.48;41.16;101009.06;4969110;28;20026;-67
2023/04/11 04:51:46;;;;;;;8.15;2.35;;;;;;;18.45;41.28;101008.47;4973850;28;20036;-68
2023/04/11 04:54:12;;;;;;;8.32;2.15;;;;;;;18.45;41.20;101013.75;4972006;28;20391;-67
2023/04/11 04:56:37;;;;;;;7.85;2.22;;;;;;;18.44;41.26;101014.72;4992757;28;20041;-67
2023/04/11 04:59:02;;;;;;;5.80;1.75;;;;;;;18.41;41.25;101013.16;4989021;28;20034;-67
2023/04/11 05:01:27;;;;;;;7.90;2.20;;;;;;;18.43;41.26;101013.03;4997907;28;20067;-65
2023/04/11 05:04:00;;;;;;;5.63;1.95;;;;;;;18.44;41.22;101031.38;5000345;28;20049;-67
2023/04/11 05:06:27;;;;;;;8.20;1.98;;;;;;;18.42;40.85;101038.59;4987985;28;20040;-67
2023/04/11 05:08:55;;;;;;;9.35;3.15;;;;;;;18.43;40.89;101036.78;4991370;28;20070;-67
2023/04/11 05:11:20;;;;;;;6.22;1.95;;;;;;;18.39;41.02;101036.19;4990163;28;20044;-68
2023/04/11 05:13:45;;;;;;;8.70;2.17;;;;;;;18.41;41.41;101034.25;4994791;28;20030;-67
2023/04/11 05:16:10;;;;;;;6.88;1.70;;;;;;;18.42;41.28;101041.22;4989887;28;20812;-67
2023/04/11 05:18:36;;;;;;;6.55;1.60;;;;;;;18.41;41.50;101044.00;4997672;28;20033;-67
2023/04/11 05:21:01;;;;;;;6.20;1.50;;;;;;;18.42;41.61;101041.22;4989634;28;20832;-69
2023/04/11 05:23:26;;;;;;;5.25;1.77;;;;;;;18.46;41.62;101044.47;4988976;28;20058;-68
2023/04/11 05:25:51;;;;;;;7.97;2.00;;;;;;;18.46;41.63;101042.66;4988595;28;20144;-68
2023/04/11 05:28:17;;;;;;;6.95;1.83;;;;;;;18.51;41.55;101047.56;4989706;28;20276;-67
2023/04/11 05:30:42;;;;;;;6.15;1.77;;;;;;;18.52;41.27;101043.97;4979086;28;20033;-67
2023/04/11 05:33:07;;;;;;;7.13;1.85;;;;;;;18.56;41.57;101058.59;4998646;28;20398;-67
2023/04/11 05:35:33;;;;;;;5.37;1.57;;;;;;;18.60;41.53;101056.56;5000386;28;20030;-67
2023/04/11 05:37:58;;;;;;;6.35;1.77;;;;;;;18.61;41.34;101060.84;5002210;28;20266;-67
2023/04/11 05:40:23;;;;;;;6.38;1.55;;;;;;;18.64;41.18;101057.97;4995454;28;20045;-68
2023/04/11 05:42:49;;;;;;;5.30;1.50;;;;;;;18.63;41.14;101065.06;4984723;28;20120;-67
2023/04/11 05:45:14;;;;;;;5.63;1.63;;;;;;;18.73;41.29;101075.72;5001783;28;20038;-67
2023/04/11 05:47:40;;;;;;;8.07;1.92;;;;;;;18.72;41.34;101071.41;4983504;28;20034;-66
2023/04/11 05:50:06;;;;;;;6.35;1.80;;;;;;;18.75;41.30;101076.44;4976746;28;20045;-67
2023/04/11 05:52:31;;;;;;;6.65;1.52;;;;;;;18.77;41.25;101097.44;4986780;28;20479;-68
2023/04/11 05:54:56;;;;;;;5.93;1.37;;;;;;;18.79;40.89;101085.78;4982624;28;20034;-68
2023/04/11 05:57:22;;;;;;;7.15;1.50;;;;;;;18.85;41.12;101089.78;4984928;28;20272;-67
2023/04/11 05:59:48;;;;;;;5.45;1.35;;;;;;;18.88;40.90;101096.59;4994271;28;20410;-67
2023/04/11 06:02:14;;;;;;;5.10;1.52;;;;;;;18.88;41.09;101096.59;4964244;28;20089;-66
2023/04/11 06:04:40;;;;;;;5.93;1.60;;;;;;;18.89;41.09;101093.84;4990863;28;20505;-68
2023/04/11 06:07:06;;;;;;;5.13;1.40;;;;;;;18.90;41.52;101097.31;5001736;28;20030;-66
2023/04/11 06:09:31;;;;;;;6.22;1.50;;;;;;;18.84;41.62;101088.09;4983017;28;20520;-68
2023/04/11 06:11:57;;;;;;;5.63;1.48;;;;;;;18.92;41.61;101105.97;4979372;28;20128;-65
2023/04/11 06:14:22;;;;;;;7.72;1.75;;;;;;;18.92;42.03;101098.88;4994336;28;20042;-65
2023/04/11 06:16:47;;;;;;;5.93;1.40;;;;;;;18.94;41.79;101096.13;4984851;28;20156;-66
2023/04/11 06:19:13;;;;;;;7.03;1.55;;;;;;;18.94;41.80;101106.69;4992717;28;20474;-66
2023/04/11 06:21:38;;;;;;;7.10;1.90;;;;;;;18.95;41.87;101111.00;4995239;28;20050;-66
2023/04/11 06:24:07;;;;;;;6.95;1.33;;;;;;;18.94;42.02;101114.59;4984247;28;20088;-69
2023/04/11 06:26:32;;;;;;;8.07;1.70;;;;;;;18.96;41.96;101118.81;4987073;28;20097;-68
2023/04/11 06:28:57;;;;;;;5.20;1.55;;;;;;;18.96;41.96;101124.09;4991829;28;20031;-68
2023/04/11 06:31:22;;;;;;;6.38;1.80;;;;;;;18.97;42.02;101107.25;4981964;28;20516;-66
2023/04/11 06:33:48;;;;;;;8.15;1.52;;;;;;;18.98;41.93;101119.53;4972052;28;20065;-67
2023/04/11 06:36:13;;;;;;;6.40;2.17;;;;;;;19.05;41.65;101111.94;5000940;28;20100;-66
2023/04/11 06:38:39;;;;;;;6.13;1.80;;;;;;;19.11;41.31;101122.00;5001027;28;20264;-69
2023/04/11 06:41:05;;;;;;;7.93;1.40;;;;;;;19.11;41.67;101123.81;4994730;28;20305;-70
2023/04/11 06:43:31;;;;;;;9.05;1.67;;;;;;;19.17;41.54;101131.25;4999482;28;20073;-68
2023/04/11 06:45:56;;;;;;;8.02;1.75;;;;;;;19.15;41.41;101125.22;4994612;28;20360;-68
2023/04/11 06:48:21;;;;;;;12.20;2.42;;;;;;;19.17;41.51;101136.53;4977551;28;20030;-66
2023/04/11 06:50:47;;;;;;;7.53;1.60;;;;;;;19.21;41.12;101143.22;4981327;28;20420;-67
2023/04/11 06:53:12;;;;;;;8.48;1.67;;;;;;;19.21;41.54;101145.88;4982878;28;20538;-67
2023/04/11 06:55:38;;;;;;;7.25;1.75;;;;;;;19.24;41.33;101148.28;4980927;28;20039;-67
2023/04/11 06:58:03;;;;;;;5.00;1.55;;;;;;;19.21;41.51;101146.69;4985444;28;20038;-65
2023/04/11 07:00:28;;;;;;;4.97;1.42;;;;;;;19.21;41.59;101149.34;4983616;28;20030;-66
2023/04/11 07:02:54;;;;;;;6.25;2.30;;;;;;;19.24;41.58;101153.56;4989371;28;20030;-69
2023/04/11 07:05:19;;;;;;;5.63;1.80;;;;;;;19.25;41.39;101157.03;4977747;28;20040;-67
2023/04/11 07:07:44;;;;;;;7.25;1.73;;;;;;;19.19;41.61;101147.81;4988130;28;20030;-69
2023/04/11 07:10:10;;;;;;;9.75;2.05;;;;;;;19.20;41.72;101157.41;4993903;28;20029;-70
2023/04/11 07:12:35;;;;;;;8.32;1.55;;;;;;;19.26;41.66;101150.78;4963370;28;20478;-66
2023/04/11 07:15:02;;;;;;;7.57;2.67;;;;;;;19.26;41.67;101161.34;4982427;28;20060;-63
2023/04/11 07:17:27;;;;;;;9.25;2.53;;;;;;;19.26;41.82;101154.25;4996227;28;20089;-65
2023/04/11 07:19:53;;;;;;;8.45;2.28;;;;;;;19.26;41.55;101158.72;5000794;28;20100;-66
2023/04/11 07:22:18;;;;;;;10.43;2.30;;;;;;;19.30;41.56;101152.22;4986112;28;20046;-66
2023/04/11 07:24:45;;;;;;;8.90;1.75;;;;;;;19.32;41.87;101172.25;5000888;28;20030;-66
2023/04/11 07:27:12;;;;;;;9.50;2.17;;;;;;;19.30;41.92;101168.91;4990519;28;20117;-66
2023/04/11 07:29:38;;;;;;;6.97;2.08;;;;;;;19.32;41.97;101174.91;4993669;28;20033;-67
2023/04/11 07:32:04;;;;;;;8.70;2.40;;;;;;;19.31;41.87;101180.31;4999915;28;20029;-67
2023/04/11 07:34:29;;;;;;;8.68;2.15;;;;;;;19.28;42.07;101177.91;4990810;28;20478;-65
2023/04/11 07:36:59;;;;;;;7.50;1.90;;;;;;;19.25;41.92;101183.44;4975753;28;20192;-67
2023/04/11 07:39:26;;;;;;;6.72;2.17;;;;;;;19.26;42.16;101188.59;5000844;28;20033;-67
2023/04/11 07:41:52;;;;;;;8.55;2.10;;;;;;;19.24;42.00;101187.91;4988599;28;20121;-66
2023/04/11 07:44:17;;;;;;;5.75;1.77;;;;;;;19.25;41.98;101204.59;4987345;28;20419;-68
2023/04/11 07:46:42;;;;;;;6.87;1.80;;;;;;;19.25;42.08;101194.88;4988014;28;20041;-68
2023/04/11 07:49:08;;;;;;;5.18;1.63;;;;;;;19.23;41.92;101202.06;4995790;28;20295;-68
2023/04/11 07:51:33;;;;;;;8.02;1.92;;;;;;;19.20;41.87;101189.97;5004389;28;20037;-67
2023/04/11 07:53:58;;;;;;;7.57;2.20;;;;;;;19.20;41.69;101197.03;4998998;28;20463;-66
2023/04/11 07:56:24;;;;;;;8.13;1.70;;;;;;;19.20;41.93;101197.03;5004567;28;20123;-66
2023/04/11 07:58:49;;;;;;;8.38;1.92;;;;;;;19.17;41.30;101195.50;4985158;28;20752;-68
2023/04/11 08:01:23;;;;;;;8.60;2.08;;;;;;;19.16;41.71;101198.25;4998793;28;20025;-67
2023/04/11 08:03:50;;;;;;;7.63;2.08;;;;;;;19.16;41.82;101192.97;5004190;28;20045;-69
2023/04/11 08:06:15;;;;;;;7.05;2.22;;;;;;;19.17;41.57;101210.50;5003417;28;20048;-68
2023/04/11 08:08:40;;;;;;;6.57;1.95;;;;;;;19.16;41.44;101198.25;5001328;28;20046;-68
2023/04/11 08:11:06;;;;;;;6.32;2.20;;;;;;;19.09;41.63;101211.13;4984611;28;20101;-68
2023/04/11 08:13:31;;;;;;;7.38;1.92;;;;;;;19.10;41.60;101207.50;4985423;28;20561;-67
2023/04/11 08:15:56;;;;;;;7.90;1.90;;;;;;;19.11;41.53;101209.19;4997912;28;20045;-68
2023/04/11 08:18:23;;;;;;;5.13;1.45;;;;;;;19.12;41.37;101215.28;4991749;28;20271;-66
2023/04/11 08:20:48;;;;;;;6.20;1.52;;;;;;;19.12;41.49;101220.59;4985145;28;20034;-67
2023/04/11 08:23:14;;;;;;;7.72;2.03;;;;;;;19.09;41.32;101226.97;4997791;28;20049;-68
2023/04/11 08:25:40;;;;;;;6.65;1.70;;;;;;;19.09;41.39;101218.19;5003171;28;20031;-66
2023/04/11 08:28:05;;;;;;;5.30;1.60;;;;;;;19.09;41.07;101226.09;4991410;28;20030;-68
2023/04/11 08:30:31;;;;;;;5.07;1.70;;;;;;;19.06;41.27;101224.56;5000739;28;20398;-68
2023/04/11 08:32:56;;;;;;;6.00;1.65;;;;;;;19.08;41.05;101229.72;5003632;28;21195;-68
2023/04/11 08:35:21;;;;;;;6.10;1.52;;;;;;;19.07;40.98;101241.25;4986580;28;20038;-68
2023/04/11 08:37:48;;;;;;;7.43;1.70;;;;;;;19.05;41.09;101233.44;4998810;28;20042;-66
2023/04/11 08:40:14;;;;;;;5.90;1.75;;;;;;;19.03;40.97;101236.19;4983730;28;20038;-67
2023/04/11 08:42:39;;;;;;;3.65;1.40;;;;;;;19.05;40.87;101241.38;4996169;28;20038;-65
2023/04/11 08:45:07;;;;;;;5.75;1.40;;;;;;;19.03;40.82;101241.50;4984027;28;20142;-66
2023/04/11 08:47:33;;;;;;;7.43;1.42;;;;;;;19.01;40.88;101246.06;4980121;28;20065;-68
2023/04/11 08:49:58;;;;;;;7.90;2.17;;;;;;;19.03;40.75;101251.22;5004248;28;20037;-67
2023/04/11 08:52:28;;;;;;;6.68;1.60;;;;;;;18.99;41.26;101245.34;4995555;28;20057;-66
2023/04/11 08:54:53;;;;;;;4.22;1.50;;;;;;;19.02;40.86;101247.72;4997208;28;20034;-66
2023/04/11 08:57:32;;;;;;;4.93;1.10;;;;;;;19.03;40.82;101245.94;4990549;28;20034;-68
2023/04/11 09:00:10;;;;;;;4.00;1.50;;;;;;;19.05;40.71;101251.09;4997123;28;20076;-67
2023/04/11 09:02:53;;;;;;;7.63;2.10;;;;;;;18.99;40.92;101244.50;4992856;28;20058;-68
2023/04/11 09:05:39;;;;;;;6.38;1.55;;;;;;;19.01;40.82;101242.59;4994689;28;20034;-66
2023/04/11 09:08:13;;;;;;;5.43;1.58;;;;;;;19.00;40.75;101227.69;4994970;28;20041;-68
2023/04/11 09:10:41;;;;;;;5.07;1.40;;;;;;;19.03;40.55;101246.78;4993766;28;20049;-68
2023/04/11 09:13:22;;;;;;;6.47;1.77;;;;;;;18.98;40.83;101235.72;4995620;28;20069;-66
2023/04/11 09:16:03;;;;;;;7.00;1.58;;;;;;;18.98;40.64;101241.03;5001535;28;20104;-68
2023/04/11 09:18:36;;;;;;;7.10;1.80;;;;;;;18.99;40.81;101255.06;4985191;28;20472;-67
2023/04/11 09:21:07;;;;;;;5.23;1.40;;;;;;;18.99;40.44;101255.06;5001449;28;20034;-66
2023/04/11 09:23:33;;;;;;;6.28;1.35;;;;;;;19.00;40.41;101254.09;4998238;28;20038;-68
2023/04/11 09:25:58;;;;;;;6.40;1.75;;;;;;;19.00;40.50;101262.03;4998621;28;20040;-66
2023/04/11 09:28:24;;;;;;;6.07;1.33;;;;;;;18.95;40.42;101254.47;4994791;28;20035;-67
2023/04/11 09:30:54;;;;;;;7.07;1.50;;;;;;;18.93;40.41;101259.03;4974917;28;20034;-67
2023/04/11 09:33:27;;;;;;;6.22;1.60;;;;;;;18.95;40.50;101259.75;4983037;28;20125;-66
2023/04/11 09:35:54;;;;;;;6.38;1.50;;;;;;;18.93;40.32;101263.44;5000363;28;20034;-68
2023/04/11 09:38:33;;;;;;;5.45;1.33;;;;;;;18.94;40.59;101262.50;5002164;28;20104;-66
2023/04/11 09:41:01;;;;;;;6.13;1.33;;;;;;;18.97;40.21;101273.66;4987767;28;20553;-68
2023/04/11 09:43:26;;;;;;;6.15;1.65;;;;;;;18.94;40.37;101262.50;4988021;28;20036;-68
2023/04/11 09:46:09;;;;;;;7.15;1.90;;;;;;;18.96;40.35;101272.00;4991968;28;20391;-68
2023/04/11 09:48:36;;;;;;;5.47;1.63;;;;;;;18.96;40.43;101260.56;4986964;28;20044;-68
2023/04/11 09:51:05;;;;;;;5.80;1.42;;;;;;;18.96;40.37;101269.34;4991009;28;20030;-65
2023/04/11 09:53:33;;;;;;;5.55;1.30;;;;;;;19.00;40.15;101273.41;4972967;28;20053;-67
2023/04/11 09:55:59;;;;;;;7.88;1.55;;;;;;;19.00;40.07;101269.94;4998143;28;20044;-67
2023/04/11 09:58:26;;;;;;;3.92;1.08;;;;;;;19.01;40.10;101269.00;4996752;28;20038;-68
2023/04/11 10:00:54;;;;;;;5.18;1.40;;;;;;;19.01;39.86;101261.91;4982622;28;20681;-67
2023/04/11 10:03:22;;;;;;;5.32;1.27;;;;;;;18.97;39.41;101271.03;4981501;28;20674;-67
2023/04/11 10:05:52;;;;;;;6.45;1.58;;;;;;;18.98;39.33;101280.63;4991477;28;20045;-66
2023/04/11 10:08:31;;;;;;;5.65;1.20;;;;;;;19.07;39.45;101276.41;4992814;28;20045;-68
2023/04/11 10:11:01;;;;;;;7.43;1.20;;;;;;;19.10;38.92;101270.91;4982738;28;20479;-69
2023/04/11 10:13:38;;;;;;;3.80;1.10;;;;;;;19.13;39.07;101277.75;4982284;28;20045;-67
2023/04/11 10:16:12;;;;;;;4.95;1.35;;;;;;;19.19;38.90;101264.91;4991676;28;20699;-67
2023/04/11 10:18:59;;;;;;;5.35;0.90;;;;;;;19.23;38.83;101251.44;4984654;28;20060;-68
2023/04/11 10:21:33;;;;;;;6.43;1.27;;;;;;;19.22;38.87;101253.25;4984698;28;20054;-65
2023/04/11 10:24:19;;;;;;;4.20;1.20;;;;;;;19.19;38.78;101254.31;4981558;28;20061;-67
2023/04/11 10:27:02;;;;;;;4.90;1.20;;;;;;;19.24;38.78;101261.88;4984665;28;20124;-67
2023/04/11 10:29:27;;;;;;;7.07;1.13;;;;;;;19.35;38.53;101258.41;4990317;28;20039;-66
2023/04/11 10:32:16;;;;;;;5.32;1.10;;;;;;;19.36;38.17;101254.81;4988256;28;20045;-69
2023/04/11 10:34:53;;;;;;;5.28;1.30;;;;;;;19.38;38.65;101256.34;4985488;28;20579;-67
2023/04/11 10:37:38;;;;;;;4.72;1.30;;;;;;;19.42;38.70;101262.22;4985485;28;20492;-67
2023/04/11 10:40:08;;;;;;;4.65;1.20;;;;;;;19.44;38.41;101262.94;4990910;28;20050;-72
2023/04/11 10:42:42;;;;;;;4.20;1.15;;;;;;;19.40;38.94;101254.41;4964758;28;20031;-70
2023/04/11 10:45:25;;;;;;;3.80;1.13;;;;;;;19.43;38.53;101252.50;4989385;28;20034;-67
2023/04/11 10:47:50;;;;;;;5.53;1.20;;;;;;;19.38;38.72;101253.69;4998572;28;20030;-67
2023/04/11 10:50:27;;;;;;;6.60;1.33;;;;;;;19.39;38.52;101263.31;4990823;28;20100;-66
2023/04/11 10:52:57;;;;;;;4.13;1.08;;;;;;;19.41;38.53;101263.19;4994172;28;20022;-66
2023/04/11 10:55:23;;;;;;;6.55;1.10;;;;;;;19.32;38.54;101269.22;4990044;28;20034;-68
2023/04/11 10:58:08;;;;;;;6.15;1.20;;;;;;;19.32;38.53;101269.22;4983918;28;20032;-68
2023/04/11 11:00:49;;;;;;;3.03;1.00;;;;;;;19.30;38.51;101261.41;4992805;28;20364;-69
2023/04/11 11:03:24;;;;;;;4.38;1.00;;;;;;;19.32;38.47;101256.00;4995600;28;20148;-66
2023/04/11 11:06:01;;;;;;;6.03;1.40;;;;;;;19.40;38.64;101269.44;4988780;28;20026;-68
2023/04/11 11:08:30;;;;;;;4.70;1.10;;;;;;;19.43;37.83;101265.72;4993468;28;20038;-66
2023/04/11 11:11:05;;;;;;;4.55;1.08;;;;;;;19.43;38.08;101260.44;4991948;28;20084;-67
2023/04/11 11:13:37;;;;;;;5.97;1.42;;;;;;;19.46;38.00;101281.34;4987082;28;20037;-67
2023/04/11 11:16:03;;;;;;;4.80;1.23;;;;;;;19.44;38.09;101270.88;4994352;28;20093;-66
2023/04/11 11:18:29;;;;;;;6.72;1.20;;;;;;;19.39;37.82;101279.19;4984312;28;20030;-67
2023/04/11 11:20:55;;;;;;;6.47;1.20;;;;;;;19.40;38.06;101283.47;4997193;28;20038;-66
2023/04/11 11:23:20;;;;;;;5.18;1.08;;;;;;;19.37;38.00;101267.03;4992426;28;20073;-66
2023/04/11 11:25:57;;;;;;;3.42;1.00;;;;;;;19.36;37.99;101273.31;4990642;28;20034;-66